Terminal Aerodrome Forecast
Issued by NWS

Current Version | Previous Version | Text Only | Print | Product List | Glossary Off
Versions: 1 2 3 4 5 6 7 8 9 10 11 12 13 14 15 16 17 18 19 20 21

000
FTUS41 KRNK 032024 AAB
TAFLWB
TAF AMD
KLWB 032024Z 0320/0418 29007KT P6SM OVC025
     FM032200 29005KT P6SM OVC035
     FM040300 00000KT P6SM BKN150
     FM041600 14003KT P6SM OVC080=

USA.gov is the U.S. government's official web portal to all federal, state and local government web resources and services.